createdAt,value
2022-09-12T00:00:33.224Z,6.10
2022-09-12T00:03:01.759Z,8.68
2022-09-12T00:05:30.994Z,6.15
2022-09-12T00:07:58.857Z,7.75
2022-09-12T00:10:27.036Z,7.15
2022-09-12T00:12:54.944Z,6.50
2022-09-12T00:15:23.064Z,5.15
2022-09-12T00:17:52.516Z,6.12
2022-09-12T00:20:20.603Z,7.55
2022-09-12T00:22:48.464Z,6.37
2022-09-12T00:25:16.827Z,7.05
2022-09-12T00:27:44.774Z,8.05
2022-09-12T00:30:13.300Z,7.62
2022-09-12T00:32:41.511Z,5.55
2022-09-12T00:35:10.802Z,6.50
2022-09-12T00:37:38.747Z,7.45
2022-09-12T00:40:07.993Z,9.27
2022-09-12T00:42:35.924Z,8.50
2022-09-12T00:45:04.147Z,9.43
2022-09-12T00:47:35.635Z,10.18
2022-09-12T00:50:08.716Z,8.20
2022-09-12T00:52:43.378Z,7.35
2022-09-12T00:55:14.300Z,9.40
2022-09-12T00:57:50.080Z,10.80
2022-09-12T01:00:21.236Z,8.50
2022-09-12T01:02:52.975Z,10.60
2022-09-12T01:05:22.370Z,6.37
2022-09-12T01:07:53.339Z,7.10
2022-09-12T01:10:21.819Z,10.65
2022-09-12T01:12:49.836Z,7.85
2022-09-12T01:15:18.225Z,8.27
2022-09-12T01:18:04.490Z,7.43
2022-09-12T01:20:48.051Z,10.30
2022-09-12T01:23:54.815Z,6.72
2022-09-12T01:26:48.517Z,10.77
2022-09-12T01:29:37.690Z,9.57
2022-09-12T01:32:12.026Z,7.35
2022-09-12T01:34:51.466Z,9.00
2022-09-12T01:37:28.819Z,15.52
2022-09-12T01:40:04.248Z,9.98
2022-09-12T01:42:35.992Z,8.98
2022-09-12T01:45:10.887Z,6.62
2022-09-12T01:47:44.965Z,8.23
2022-09-12T01:50:18.811Z,8.00
2022-09-12T01:52:51.885Z,8.57
2022-09-12T01:55:24.962Z,8.20
2022-09-12T01:57:57.518Z,9.85
2022-09-12T02:00:25.694Z,8.27
2022-09-12T02:03:02.303Z,8.75
2022-09-12T02:05:34.154Z,7.80
2022-09-12T02:08:08.191Z,10.40
2022-09-12T02:10:44.123Z,8.05
2022-09-12T02:13:17.831Z,7.37
2022-09-12T02:15:50.614Z,7.05
2022-09-12T02:18:22.004Z,12.18
2022-09-12T02:20:51.136Z,9.23
2022-09-12T02:23:23.953Z,8.85
2022-09-12T02:25:55.713Z,10.75
2022-09-12T02:28:27.647Z,8.07
2022-09-12T02:31:05.999Z,7.90
2022-09-12T02:33:44.791Z,10.23
2022-09-12T02:36:21.942Z,9.15
2022-09-12T02:38:50.440Z,10.75
2022-09-12T02:41:21.304Z,10.73
2022-09-12T02:43:51.416Z,7.45
2022-09-12T02:46:23.651Z,8.05
2022-09-12T02:48:53.026Z,9.30
2022-09-12T02:51:23.857Z,8.85
2022-09-12T02:53:52.509Z,8.68
2022-09-12T02:56:26.540Z,7.30
2022-09-12T02:58:58.538Z,7.50
2022-09-12T03:01:50.609Z,8.05
2022-09-12T03:04:43.624Z,9.18
2022-09-12T03:07:17.824Z,8.18
2022-09-12T03:09:53.468Z,8.23
2022-09-12T03:12:33.320Z,8.10
2022-09-12T03:15:13.831Z,8.07
2022-09-12T03:17:53.983Z,12.45
2022-09-12T03:20:34.870Z,9.52
2022-09-12T03:23:06.623Z,9.90
2022-09-12T03:25:39.968Z,8.20
2022-09-12T03:28:11.468Z,7.20
2022-09-12T03:30:41.208Z,11.23
2022-09-12T03:33:12.854Z,10.55
2022-09-12T03:35:43.052Z,6.50
2022-09-12T03:38:11.256Z,10.82
2022-09-12T03:40:40.310Z,9.43
2022-09-12T03:43:09.357Z,8.65
2022-09-12T03:45:38.615Z,7.60
2022-09-12T03:48:07.203Z,17.45
2022-09-12T03:50:35.576Z,8.05
2022-09-12T03:53:05.206Z,8.13
2022-09-12T03:55:33.065Z,7.72
2022-09-12T03:58:01.223Z,6.28
2022-09-12T04:00:29.376Z,13.00
2022-09-12T04:02:58.252Z,6.03
2022-09-12T04:05:26.860Z,9.80
2022-09-12T04:07:54.784Z,7.25
2022-09-12T04:10:24.287Z,8.32
2022-09-12T04:12:52.110Z,8.77
2022-09-12T04:15:20.216Z,9.93
2022-09-12T04:17:48.619Z,8.38
2022-09-12T04:20:16.650Z,6.87
2022-09-12T04:22:44.553Z,7.85
2022-09-12T04:25:13.455Z,9.18
2022-09-12T04:27:43.024Z,6.15
2022-09-12T04:30:11.928Z,9.90
2022-09-12T04:32:41.363Z,8.57
2022-09-12T04:35:11.255Z,8.20
2022-09-12T04:37:39.477Z,9.13
2022-09-12T04:40:08.353Z,8.75
2022-09-12T04:42:36.408Z,10.60
2022-09-12T04:45:07.666Z,7.18
2022-09-12T04:47:35.552Z,6.47
2022-09-12T04:50:04.311Z,7.12
2022-09-12T04:52:32.487Z,6.87
2022-09-12T04:55:00.476Z,9.02
2022-09-12T04:57:28.383Z,8.93
2022-09-12T04:59:56.451Z,9.35
2022-09-12T05:02:25.810Z,8.40
2022-09-12T05:04:54.250Z,6.35
2022-09-12T05:07:22.318Z,9.07
2022-09-12T05:09:50.237Z,9.60
2022-09-12T05:12:18.887Z,7.30
2022-09-12T05:14:47.032Z,7.45
2022-09-12T05:17:14.894Z,7.57
2022-09-12T05:19:44.185Z,9.07
2022-09-12T05:22:12.314Z,9.18
2022-09-12T05:24:47.311Z,10.10
2022-09-12T05:27:18.086Z,7.87
2022-09-12T05:29:45.922Z,9.68
2022-09-12T05:32:13.830Z,8.00
2022-09-12T05:34:41.928Z,10.73
2022-09-12T05:37:11.078Z,5.62
2022-09-12T05:39:38.991Z,8.80
2022-09-12T05:42:07.265Z,7.68
2022-09-12T05:44:35.120Z,8.18
2022-09-12T05:47:03.083Z,5.68
2022-09-12T05:49:31.185Z,8.25
2022-09-12T05:51:59.034Z,7.65
2022-09-12T05:54:31.533Z,7.93
2022-09-12T05:56:59.962Z,10.52
2022-09-12T05:59:28.480Z,8.40
2022-09-12T06:01:56.557Z,10.32
2022-09-12T06:04:25.485Z,8.85
2022-09-12T06:06:53.618Z,10.25
2022-09-12T06:09:21.450Z,11.43
2022-09-12T06:11:51.792Z,10.73
2022-09-12T06:14:19.914Z,11.23
2022-09-12T06:16:48.639Z,10.45
2022-09-12T06:19:19.107Z,11.88
2022-09-12T06:21:49.415Z,11.65
2022-09-12T06:24:17.951Z,11.18
2022-09-12T06:26:46.916Z,10.02
2022-09-12T06:29:16.550Z,9.98
2022-09-12T06:31:45.331Z,10.75
2022-09-12T06:34:14.941Z,11.05
2022-09-12T06:36:44.205Z,11.10
2022-09-12T06:39:14.480Z,10.30
2022-09-12T06:41:44.296Z,10.68
2022-09-12T06:44:15.996Z,12.02
2022-09-12T06:46:46.108Z,10.98
2022-09-12T06:49:14.757Z,10.63
2022-09-12T06:51:43.117Z,9.15
2022-09-12T06:54:13.602Z,13.50
2022-09-12T06:56:41.915Z,11.48
2022-09-12T06:59:09.795Z,13.20
2022-09-12T07:01:37.934Z,10.77
2022-09-12T07:04:07.581Z,10.18
2022-09-12T07:06:38.139Z,12.27
2022-09-12T07:09:08.807Z,12.48
2022-09-12T07:11:38.661Z,10.77
2022-09-12T07:14:09.206Z,10.82
2022-09-12T07:16:37.419Z,9.95
2022-09-12T07:19:09.135Z,12.45
2022-09-12T07:21:39.830Z,9.98
2022-09-12T07:24:10.261Z,9.23
2022-09-12T07:26:40.369Z,9.57
2022-09-12T07:29:34.891Z,11.90
2022-09-12T07:31:57.290Z,9.20
2022-09-12T07:34:26.420Z,10.40
2022-09-12T07:36:54.399Z,9.00
2022-09-12T07:39:22.529Z,9.63
2022-09-12T07:41:50.404Z,6.37
2022-09-12T07:44:18.224Z,6.55
2022-09-12T07:46:46.671Z,6.20
2022-09-12T07:49:14.573Z,5.93
2022-09-12T07:51:43.820Z,4.47
2022-09-12T07:54:11.893Z,4.25
2022-09-12T07:56:40.810Z,5.85
2022-09-12T07:59:08.774Z,4.25
2022-09-12T08:01:37.186Z,5.12
2022-09-12T08:04:05.908Z,4.07
2022-09-12T08:06:36.054Z,4.93
2022-09-12T08:09:06.220Z,4.00
2022-09-12T08:11:34.871Z,5.85
2022-09-12T08:14:03.141Z,4.25
2022-09-12T08:16:33.006Z,3.17
2022-09-12T08:19:02.238Z,3.83
2022-09-12T08:21:31.992Z,3.42
2022-09-12T08:24:01.907Z,3.25
2022-09-12T08:26:32.755Z,5.47
2022-09-12T08:29:01.286Z,5.75
2022-09-12T08:31:29.824Z,4.22
2022-09-12T08:33:58.692Z,7.12
2022-09-12T08:36:29.634Z,4.60
2022-09-12T08:39:00.380Z,2.75
2022-09-12T08:41:34.899Z,4.65
2022-09-12T08:44:22.825Z,6.20
2022-09-12T08:47:03.900Z,4.18
2022-09-12T08:49:35.626Z,3.37
2022-09-12T08:52:08.119Z,4.35
2022-09-12T08:54:36.280Z,3.50
2022-09-12T08:57:07.078Z,3.87
2022-09-12T08:59:39.047Z,2.60
2022-09-12T09:02:24.955Z,4.60
2022-09-12T09:04:57.227Z,2.62
2022-09-12T09:07:40.943Z,4.70
2022-09-12T09:10:19.944Z,4.43
2022-09-12T09:13:00.809Z,2.95
2022-09-12T09:15:41.048Z,2.92
2022-09-12T09:18:17.041Z,2.87
2022-09-12T09:20:50.234Z,2.17
2022-09-12T09:23:24.736Z,2.80
2022-09-12T09:25:57.646Z,2.65
2022-09-12T09:28:33.309Z,5.00
2022-09-12T09:31:01.725Z,4.30
2022-09-12T09:33:35.179Z,4.15
2022-09-12T09:36:15.029Z,3.90
2022-09-12T09:38:50.059Z,5.57
2022-09-12T09:41:31.827Z,2.85
2022-09-12T09:44:02.833Z,1.92
2022-09-12T09:46:31.161Z,2.85
2022-09-12T09:49:03.770Z,3.40
2022-09-12T09:51:36.373Z,3.28
2022-09-12T09:54:12.223Z,1.70
2022-09-12T09:56:42.414Z,3.22
2022-09-12T09:59:13.698Z,2.47
2022-09-12T10:01:47.902Z,2.10
2022-09-12T10:04:21.521Z,2.42
2022-09-12T10:06:52.839Z,1.87
2022-09-12T10:09:24.778Z,2.33
2022-09-12T10:11:54.042Z,1.98
2022-09-12T10:14:38.877Z,1.87
2022-09-12T10:17:33.884Z,3.30
2022-09-12T10:20:21.701Z,1.30
2022-09-12T10:22:50.458Z,1.10
2022-09-12T10:25:21.129Z,1.12
2022-09-12T10:27:55.302Z,3.53
2022-09-12T10:30:28.695Z,1.90
2022-09-12T10:33:06.423Z,1.37
2022-09-12T10:35:45.834Z,1.65
2022-09-12T10:38:18.815Z,1.08
2022-09-12T10:40:47.036Z,1.20
2022-09-12T10:43:25.295Z,1.15
2022-09-12T10:45:58.654Z,1.48
2022-09-12T10:48:31.601Z,1.50
2022-09-12T10:51:00.555Z,1.58
2022-09-12T10:53:34.322Z,3.50
2022-09-12T10:56:08.064Z,1.75
2022-09-12T10:59:18.062Z,1.45
2022-09-12T11:01:51.373Z,1.27
2022-09-12T11:04:29.302Z,1.23
2022-09-12T11:07:22.822Z,1.60
2022-09-12T11:10:01.052Z,2.17
2022-09-12T11:12:39.961Z,1.75
2022-09-12T11:15:34.208Z,1.95
2022-09-12T11:18:16.095Z,1.83
2022-09-12T11:20:58.949Z,2.65
2022-09-12T11:24:11.523Z,1.87
2022-09-12T11:27:00.514Z,2.47
2022-09-12T11:29:43.152Z,1.40
2022-09-12T11:32:51.038Z,1.70
2022-09-12T11:35:25.745Z,1.35
2022-09-12T11:38:13.992Z,1.90
2022-09-12T11:40:47.407Z,1.25
2022-09-12T11:43:24.648Z,1.30
2022-09-12T11:45:54.119Z,3.65
2022-09-12T11:48:38.785Z,3.47
2022-09-12T11:51:19.072Z,1.30
2022-09-12T11:53:58.370Z,2.40
2022-09-12T11:56:26.592Z,1.85
2022-09-12T11:59:00.407Z,1.58
2022-09-12T12:01:36.268Z,1.50
2022-09-12T12:04:12.761Z,1.70
2022-09-12T12:06:52.085Z,1.40
2022-09-12T12:09:20.468Z,1.50
2022-09-12T12:11:52.627Z,1.40
2022-09-12T12:14:25.559Z,1.37
2022-09-12T12:16:53.737Z,2.97
2022-09-12T12:19:36.886Z,1.42
2022-09-12T12:22:09.988Z,3.08
2022-09-12T12:24:56.055Z,1.30
2022-09-12T12:27:26.204Z,2.95
2022-09-12T12:29:54.560Z,1.40
2022-09-12T12:32:27.124Z,1.52
2022-09-12T12:35:32.619Z,1.70
2022-09-12T12:38:02.847Z,1.70
2022-09-12T12:40:31.858Z,1.00
2022-09-12T12:43:03.041Z,1.37
2022-09-12T12:46:00.899Z,1.40
2022-09-12T12:48:33.887Z,1.10
2022-09-12T12:51:40.699Z,1.70
2022-09-12T12:54:35.699Z,2.62
2022-09-12T12:57:16.492Z,1.45
2022-09-12T12:59:49.036Z,1.90
2022-09-12T13:02:22.130Z,1.58
2022-09-12T13:04:51.327Z,2.62
2022-09-12T13:07:28.622Z,1.65
2022-09-12T13:09:58.875Z,2.40
2022-09-12T13:12:30.563Z,1.40
2022-09-12T13:14:59.635Z,1.12
2022-09-12T13:17:35.798Z,1.37
2022-09-12T13:20:29.725Z,2.92
2022-09-12T13:22:59.160Z,1.60
2022-09-12T13:25:31.346Z,1.42
2022-09-12T13:28:01.668Z,2.17
2022-09-12T13:30:32.269Z,2.08
2022-09-12T13:33:17.974Z,1.40
2022-09-12T13:36:06.351Z,1.50
2022-09-12T13:38:44.092Z,1.35
2022-09-12T13:41:31.956Z,1.50
2022-09-12T13:44:00.502Z,1.35
2022-09-12T13:46:31.663Z,1.27
2022-09-12T13:49:01.781Z,1.10
2022-09-12T13:51:32.753Z,1.00
2022-09-12T13:54:04.491Z,1.55
2022-09-12T13:56:33.984Z,2.37
2022-09-12T13:59:03.587Z,1.25
2022-09-12T14:01:40.200Z,1.50
2022-09-12T14:04:34.271Z,1.55
2022-09-12T14:07:04.241Z,1.73
2022-09-12T14:09:38.422Z,3.08
2022-09-12T14:12:18.225Z,1.33
2022-09-12T14:14:49.934Z,1.50
2022-09-12T14:17:20.798Z,1.77
2022-09-12T14:19:52.574Z,1.30
2022-09-12T14:22:20.911Z,1.30
2022-09-12T14:24:51.683Z,1.30
2022-09-12T14:27:26.154Z,1.23
2022-09-12T14:30:02.114Z,1.42
2022-09-12T14:32:30.345Z,0.80
2022-09-12T14:35:19.401Z,1.10
2022-09-12T14:37:51.495Z,1.15
2022-09-12T14:40:21.916Z,5.95
2022-09-12T14:42:56.022Z,3.03
2022-09-12T14:45:31.287Z,2.30
2022-09-12T14:47:59.811Z,1.73
2022-09-12T14:50:31.194Z,1.87
2022-09-12T14:53:08.118Z,1.10
2022-09-12T14:55:45.015Z,1.12
2022-09-12T14:58:26.242Z,1.02
2022-09-12T15:00:55.956Z,0.95
2022-09-12T15:03:27.932Z,1.20
2022-09-12T15:05:56.359Z,1.10
2022-09-12T15:08:26.129Z,1.62
2022-09-12T15:10:53.971Z,2.15
2022-09-12T15:13:25.798Z,2.70
2022-09-12T15:15:55.756Z,1.62
2022-09-12T15:18:25.751Z,1.15
2022-09-12T15:20:56.780Z,1.17
2022-09-12T15:23:35.467Z,1.35
2022-09-12T15:26:04.508Z,1.20
2022-09-12T15:28:34.683Z,1.85
2022-09-12T15:31:08.154Z,1.12
2022-09-12T15:33:36.397Z,1.00
2022-09-12T15:36:05.018Z,1.05
2022-09-12T15:38:32.898Z,1.30
2022-09-12T15:41:01.038Z,1.08
2022-09-12T15:43:28.911Z,1.08
2022-09-12T15:45:59.269Z,1.30
2022-09-12T15:48:27.395Z,4.50
2022-09-12T15:50:57.618Z,1.55
2022-09-12T15:53:25.472Z,1.52
2022-09-12T15:55:53.558Z,1.17
2022-09-12T15:58:21.483Z,1.10
2022-09-12T16:00:49.339Z,2.97
2022-09-12T16:03:23.755Z,1.20
2022-09-12T16:05:55.966Z,1.25
2022-09-12T16:08:24.687Z,1.30
2022-09-12T16:10:55.801Z,1.42
2022-09-12T16:13:23.921Z,2.15
2022-09-12T16:15:52.625Z,2.70
2022-09-12T16:18:21.911Z,1.00
2022-09-12T16:20:53.366Z,2.97
2022-09-12T16:23:21.493Z,1.40
2022-09-12T16:25:57.264Z,1.35
2022-09-12T16:28:25.535Z,1.00
2022-09-12T16:30:57.322Z,1.42
2022-09-12T16:33:27.566Z,1.27
2022-09-12T16:36:03.982Z,2.22
2022-09-12T16:38:32.341Z,2.47
2022-09-12T16:41:03.029Z,2.72
2022-09-12T16:43:31.073Z,1.62
2022-09-12T16:46:03.807Z,2.70
2022-09-12T16:48:33.842Z,1.62
2022-09-12T16:51:05.057Z,1.40
2022-09-12T16:53:34.104Z,2.87
2022-09-12T16:56:02.522Z,1.62
2022-09-12T16:58:34.928Z,3.15
2022-09-12T17:01:07.595Z,1.85
2022-09-12T17:03:37.143Z,2.20
2022-09-12T17:06:08.655Z,1.77
2022-09-12T17:08:39.357Z,2.45
2022-09-12T17:11:09.476Z,3.10
2022-09-12T17:14:03.219Z,1.37
2022-09-12T17:16:26.448Z,1.75
2022-09-12T17:18:55.755Z,1.37
2022-09-12T17:21:24.577Z,5.25
2022-09-12T17:23:52.685Z,3.53
2022-09-12T17:26:20.979Z,3.28
2022-09-12T17:28:49.583Z,1.62
2022-09-12T17:31:18.161Z,1.83
2022-09-12T17:33:46.498Z,1.30
2022-09-12T17:36:18.272Z,3.40
2022-09-12T17:38:47.289Z,1.70
2022-09-12T17:41:17.738Z,1.83
2022-09-12T17:43:46.784Z,6.35
2022-09-12T17:46:14.798Z,2.05
2022-09-12T17:48:43.071Z,2.65
2022-09-12T17:51:13.023Z,4.45
2022-09-12T17:53:43.911Z,3.92
2022-09-12T17:56:12.558Z,4.12
2022-09-12T17:58:40.496Z,2.30
2022-09-12T18:01:28.971Z,4.12
2022-09-12T18:03:58.717Z,2.97
2022-09-12T18:06:28.617Z,2.85
2022-09-12T18:09:00.610Z,2.55
2022-09-12T18:11:28.940Z,2.03
2022-09-12T18:13:56.860Z,5.50
2022-09-12T18:16:24.709Z,2.55
2022-09-12T18:18:53.206Z,4.68
2022-09-12T18:21:21.275Z,2.55
2022-09-12T18:23:50.227Z,1.73
2022-09-12T18:26:19.736Z,1.75
2022-09-12T18:28:47.603Z,1.92
2022-09-12T18:31:18.239Z,2.08
2022-09-12T18:33:47.209Z,1.98
2022-09-12T18:36:16.350Z,2.67
2022-09-12T18:38:45.308Z,4.15
2022-09-12T18:41:15.156Z,3.87
2022-09-12T18:43:44.991Z,2.85
2022-09-12T18:46:15.369Z,1.77
2022-09-12T18:48:45.045Z,1.83
2022-09-12T18:51:15.595Z,1.90
2022-09-12T18:53:43.733Z,2.20
2022-09-12T18:56:13.614Z,3.08
2022-09-12T18:58:44.282Z,1.90
2022-09-12T19:01:14.022Z,2.62
2022-09-12T19:03:42.825Z,1.52
2022-09-12T19:06:12.144Z,2.25
2022-09-12T19:08:40.497Z,2.15
2022-09-12T19:11:09.276Z,1.83
2022-09-12T19:13:41.346Z,2.53
2022-09-12T19:16:14.124Z,3.30
2022-09-12T19:18:42.893Z,3.20
2022-09-12T19:21:14.652Z,4.85
2022-09-12T19:23:43.018Z,2.55
2022-09-12T19:26:13.635Z,2.00
2022-09-12T19:28:42.292Z,1.75
2022-09-12T19:31:14.074Z,2.03
2022-09-12T19:33:44.584Z,2.87
2022-09-12T19:36:34.011Z,2.00
2022-09-12T19:39:02.673Z,2.55
2022-09-12T19:41:31.303Z,3.60
2022-09-12T19:44:00.348Z,2.85
2022-09-12T19:46:29.868Z,2.05
2022-09-12T19:48:57.772Z,2.15
2022-09-12T19:51:25.696Z,1.98
2022-09-12T19:53:55.088Z,3.37
2022-09-12T19:56:23.690Z,2.20
2022-09-12T19:58:56.122Z,2.97
2022-09-12T20:01:28.262Z,2.00
2022-09-12T20:03:58.673Z,2.28
2022-09-12T20:06:27.591Z,3.25
2022-09-12T20:08:56.314Z,1.58
2022-09-12T20:11:25.563Z,2.62
2022-09-12T20:13:54.472Z,2.12
2022-09-12T20:16:24.568Z,1.70
2022-09-12T20:18:58.690Z,2.65
2022-09-12T20:21:31.425Z,2.12
2022-09-12T20:24:05.258Z,1.85
2022-09-12T20:26:34.135Z,1.65
2022-09-12T20:29:02.478Z,3.50
2022-09-12T20:31:31.121Z,2.10
2022-09-12T20:34:00.634Z,2.45
2022-09-12T20:36:29.305Z,2.03
2022-09-12T20:39:01.109Z,2.00
2022-09-12T20:41:31.350Z,2.40
2022-09-12T20:43:59.754Z,3.65
2022-09-12T20:46:29.294Z,2.65
2022-09-12T20:48:58.391Z,3.72
2022-09-12T20:51:30.244Z,2.22
2022-09-12T20:53:59.615Z,3.25
2022-09-12T20:56:29.372Z,2.50
2022-09-12T20:58:57.576Z,2.67
2022-09-12T21:01:26.851Z,3.03
2022-09-12T21:03:55.277Z,2.75
2022-09-12T21:06:23.142Z,3.03
2022-09-12T21:08:52.587Z,3.35
2022-09-12T21:11:21.117Z,3.45
2022-09-12T21:13:49.104Z,4.15
2022-09-12T21:16:19.821Z,3.95
2022-09-12T21:18:48.540Z,2.30
2022-09-12T21:21:16.424Z,3.72
2022-09-12T21:23:45.236Z,2.65
2022-09-12T21:26:15.554Z,2.55
2022-09-12T21:28:43.481Z,4.18
2022-09-12T21:31:11.947Z,2.00
2022-09-12T21:33:40.480Z,3.53
2022-09-12T21:36:09.652Z,3.60
2022-09-12T21:38:37.893Z,3.20
2022-09-12T21:41:08.809Z,3.05
2022-09-12T21:43:38.666Z,2.25
2022-09-12T21:46:08.245Z,2.53
2022-09-12T21:48:37.781Z,2.35
2022-09-12T21:51:06.027Z,2.15
2022-09-12T21:53:34.359Z,1.90
2022-09-12T21:56:03.476Z,4.62
2022-09-12T21:58:31.348Z,3.83
2022-09-12T22:01:01.283Z,1.98
2022-09-12T22:03:30.534Z,3.72
2022-09-12T22:06:00.452Z,2.72
2022-09-12T22:08:29.540Z,2.80
2022-09-12T22:11:02.328Z,2.75
2022-09-12T22:13:32.397Z,3.72
2022-09-12T22:16:02.827Z,1.98
2022-09-12T22:18:32.826Z,1.58
2022-09-12T22:21:02.574Z,4.32
2022-09-12T22:23:48.388Z,2.87
2022-09-12T22:26:17.274Z,2.10
2022-09-12T22:28:47.177Z,2.65
2022-09-12T22:31:17.973Z,3.15
2022-09-12T22:33:46.450Z,1.92
2022-09-12T22:36:14.629Z,2.35
2022-09-12T22:38:42.558Z,2.10
2022-09-12T22:41:12.454Z,4.25
2022-09-12T22:43:40.665Z,3.50
2022-09-12T22:46:10.222Z,2.70
2022-09-12T22:48:40.346Z,2.55
2022-09-12T22:51:08.309Z,3.42
2022-09-12T22:53:36.981Z,2.90
2022-09-12T22:56:06.602Z,5.65
2022-09-12T22:58:37.308Z,3.83
2022-09-12T23:01:06.982Z,2.80
2022-09-12T23:03:35.424Z,2.92
2022-09-12T23:06:05.091Z,3.22
2022-09-12T23:08:34.981Z,3.97
2022-09-12T23:11:03.450Z,3.58
2022-09-12T23:13:32.174Z,3.17
2022-09-12T23:16:01.305Z,2.58
2022-09-12T23:18:29.464Z,2.87
2022-09-12T23:20:59.332Z,2.25
2022-09-12T23:23:29.257Z,3.42
2022-09-12T23:26:05.653Z,3.12
2022-09-12T23:28:34.709Z,2.62
2022-09-12T23:31:02.822Z,3.25
2022-09-12T23:33:32.231Z,3.15
2022-09-12T23:36:01.261Z,4.18
2022-09-12T23:38:31.414Z,4.25
2022-09-12T23:41:00.048Z,4.03
2022-09-12T23:43:28.662Z,5.75
2022-09-12T23:45:56.540Z,3.58
2022-09-12T23:48:24.890Z,4.65
2022-09-12T23:50:53.806Z,4.05
2022-09-12T23:53:22.870Z,4.45
2022-09-12T23:55:52.661Z,4.72
2022-09-12T23:58:21.576Z,6.53
